Flight Track Log - Related Links

Times and Time Zones

All times are in EDT time to prevent confusion due to time zone crossing. See the AMF1026 flight status page for this flight to view local times or setup timezone preferences in your user account.

Time Position Orientation Groundspeed Altitude Reporting Facility
EDT Latitude Longitude Course Direction KTS MPH feet Rate Location/Type
Fri 08:56:39 PM 42.7714 -73.8092 288° West 148 170 1,000  Level Boston Center
Fri 08:57:46 PM 42.7853 -73.8658 288° West 184 212 2,600 1,605 Climbing Boston Center
Fri 08:59:31 PM 42.7528 -73.9669 246° West 190 219 5,600 1,683 Climbing Boston Center
Fri 09:00:30 PM 42.7436 -74.0317 259° West 190 219 7,200 1,664 Climbing Boston Center
Fri 09:01:30 PM 42.7322 -74.1022 258° West 180 207 8,900 1,339 Climbing Boston Center
Fri 09:02:31 PM 42.7333 -74.1586 272° West 180 207 9,900 1,200 Climbing Boston Center
Fri 09:03:30 PM 42.7133 -74.2400 252° West 191 220 11,300 1,261 Climbing Boston Center
Fri 09:04:30 PM 42.6917 -74.3017 244° Southwest 201 231 12,400 1,150 Climbing Boston Center
Fri 09:05:30 PM 42.6653 -74.3742 244° Southwest 196 226 13,600 1,000 Climbing Boston Center
Fri 09:06:30 PM 42.6456 -74.4358 247° West 196 226 14,400 800 Climbing Boston Center
Fri 09:07:30 PM 42.6253 -74.5142 251° West 196 226 15,200 750 Climbing Boston Center
Fri 09:08:30 PM 42.6136 -74.5786 256° West 202 232 15,900 400 Climbing Boston Center
Fri 09:09:30 PM 42.5953 -74.6653 254° West 212 244 16,000 50 Climbing Boston Center
Fri 09:10:30 PM 42.5856 -74.7439 260° West 225 259 16,000 50 Level Boston Center
Fri 09:11:30 PM 42.5792 -74.8453 265° West 243 280 16,100  Climbing Boston Center
Fri 09:12:30 PM 42.5586 -74.9292 252° West 248 285 16,000  Descending Boston Center
Fri 09:13:30 PM 42.5236 -75.0094 239° Southwest 242 278 16,100  Climbing Boston Center
Fri 09:14:30 PM 42.4925 -75.0925 243° Southwest 247 284 16,000 -50 Descending Boston Center
Fri 09:15:30 PM 42.4819 -75.1767 260° West 247 284 16,000  Level Boston Center
Fri 09:16:30 PM 42.4692 -75.2717 260° West 247 284 16,000  Level Boston Center
Fri 09:17:31 PM 42.4381 -75.3519 242° Southwest 247 284 16,000  Level Boston Center
Fri 09:19:50 PM 42.3586 -75.5328 239° Southwest 244 281 16,000  Level New York Center
Fri 09:20:48 PM 42.3283 -75.6175 244° Southwest 244 281 16,000  Level New York Center
Fri 09:21:49 PM 42.3142 -75.7061 258° West 244 281 16,000  Level New York Center
Fri 09:22:51 PM 42.2839 -75.7850 243° Southwest 244 281 16,000  Level New York Center
Fri 09:23:50 PM 42.2511 -75.8667 242° Southwest 244 281 16,000  Level New York Center
Fri 09:24:51 PM 42.2125 -75.9447 236° Southwest 249 287 16,000  Level New York Center
Fri 09:25:51 PM 42.1819 -76.0236 242° Southwest 249 287 16,000  Level New York Center
Fri 09:26:49 PM 42.1633 -76.1117 254° West 244 281 16,000  Level New York Center
Fri 09:27:51 PM 42.1389 -76.1936 248° West 244 281 16,000  Level New York Center
Fri 09:28:49 PM 42.1081 -76.2747 243° Southwest 244 281 16,000  Level New York Center
Fri 09:29:51 PM 42.0753 -76.3558 241° Southwest 249 287 16,000 -50 Level New York Center
Fri 09:30:49 PM 42.0422 -76.4342 240° Southwest 255 293 15,900 -50 Descending New York Center
Fri 09:31:51 PM 42.0114 -76.5181 244° Southwest 255 293 15,900  Level New York Center
Fri 09:32:48 PM 41.9842 -76.6022 247° West 255 293 15,900  Level New York Center
Fri 09:33:49 PM 41.9550 -76.6861 245° Southwest 255 293 15,900  Level New York Center
Fri 09:34:49 PM 41.9261 -76.7672 244° Southwest 255 293 15,900  Level New York Center
Fri 09:35:49 PM 41.8950 -76.8481 243° Southwest 255 293 15,900  Level New York Center
Fri 09:36:51 PM 41.8656 -76.9317 245° Southwest 255 293 15,900  Level New York Center
Fri 09:38:22 PM 41.8244 -77.0525 245° Southwest 255 293 15,900  Level Cleveland Center
Fri 09:39:22 PM 41.7978 -77.1375 247° West 255 293 15,900  Level Cleveland Center
Fri 09:40:22 PM 41.7733 -77.2250 249° West 255 293 15,900  Level Cleveland Center
Fri 09:41:22 PM 41.7467 -77.3156 248° West 250 288 15,900  Level Cleveland Center
Fri 09:42:22 PM 41.7219 -77.4003 249° West 250 288 15,900  Level Cleveland Center
Fri 09:43:22 PM 41.6972 -77.4878 249° West 255 293 15,900 50 Level Cleveland Center
Fri 09:44:22 PM 41.6683 -77.5697 245° Southwest 255 293 16,000 50 Climbing Cleveland Center
Fri 09:45:22 PM 41.6328 -77.6519 240° Southwest 255 293 16,000  Level Cleveland Center
Fri 09:46:22 PM 41.5972 -77.7314 239° Southwest 255 293 16,000  Level Cleveland Center
Fri 09:47:22 PM 41.5639 -77.8133 241° Southwest 255 293 16,000  Level Cleveland Center
Fri 09:48:22 PM 41.5344 -77.8950 244° Southwest 250 288 16,000  Level Cleveland Center
Fri 09:49:22 PM 41.5092 -77.9739 247° West 250 288 16,000  Level Cleveland Center
Fri 09:50:22 PM 41.4861 -78.0581 250° West 250 288 16,000  Level Cleveland Center
Fri 09:51:22 PM 41.4672 -78.1472 254° West 250 288 16,000  Level Cleveland Center
Fri 09:52:22 PM 41.4419 -78.2342 249° West 250 288 16,000  Level Cleveland Center
Fri 09:53:22 PM 41.4164 -78.3153 247° West 250 288 16,000  Level Cleveland Center
Fri 09:54:22 PM 41.3847 -78.4022 244° Southwest 255 293 16,000  Level Cleveland Center
Fri 09:55:22 PM 41.3550 -78.4864 245° Southwest 255 293 16,000  Level Cleveland Center
Fri 09:56:22 PM 41.3336 -78.5756 252° West 255 293 16,000  Level Cleveland Center
Fri 09:57:22 PM 41.3144 -78.6617 254° West 255 293 16,000  Level Cleveland Center
Fri 09:58:22 PM 41.2867 -78.7483 247° West 250 288 16,000  Level Cleveland Center
Fri 09:59:22 PM 41.2608 -78.8319 248° West 250 288 16,000  Level Cleveland Center
Fri 10:00:22 PM 41.2350 -78.9153 248° West 250 288 16,000  Level Cleveland Center
Fri 10:01:22 PM 41.2008 -79.0044 243° Southwest 250 288 16,000  Level Cleveland Center
Fri 10:02:22 PM 41.1747 -79.0908 248° West 250 288 16,000  Level Cleveland Center
Fri 10:03:22 PM 41.1467 -79.1714 245° Southwest 250 288 16,000  Level Cleveland Center
Fri 10:04:22 PM 41.1206 -79.2464 245° Southwest 255 293 16,000  Level Cleveland Center
Fri 10:05:22 PM 41.0900 -79.3269 243° Southwest 255 293 16,000  Level Cleveland Center
Fri 10:06:22 PM 41.0597 -79.4128 245° Southwest 255 293 16,000  Level Cleveland Center
Fri 10:07:22 PM 41.0378 -79.4986 251° West 255 293 16,000  Level Cleveland Center
Fri 10:08:22 PM 41.0175 -79.5842 253° West 250 288 16,000  Level Cleveland Center
Fri 10:09:22 PM 40.9994 -79.6725 255° West 250 288 16,000  Level Cleveland Center
Fri 10:10:22 PM 40.9814 -79.7608 255° West 244 281 16,000  Level Cleveland Center
Fri 10:11:22 PM 40.9611 -79.8461 253° West 244 281 16,000  Level Cleveland Center
Fri 10:12:22 PM 40.9283 -79.9264 242° Southwest 244 281 16,000  Level Cleveland Center
Fri 10:13:22 PM 40.8953 -80.0064 241° Southwest 249 287 16,000  Level Cleveland Center
Fri 10:14:22 PM 40.8583 -80.0836 238° Southwest 254 292 16,000  Level Cleveland Center
Fri 10:15:22 PM 40.8314 -80.1686 247° West 254 292 16,000  Level Cleveland Center
Fri 10:16:22 PM 40.8108 -80.2567 253° West 248 285 16,000  Level Cleveland Center
Fri 10:17:22 PM 40.7672 -80.3308 232° Southwest 248 285 16,000  Level Cleveland Center
Fri 10:18:22 PM 40.7194 -80.4106 232° Southwest 260 299 16,000  Level Cleveland Center
Fri 10:19:22 PM 40.6717 -80.4844 230° Southwest 265 305 16,000  Level Cleveland Center
Fri 10:20:22 PM 40.6342 -80.5611 237° Southwest 259 298 16,000  Level Cleveland Center
Fri 10:21:22 PM 40.5925 -80.6294 231° Southwest 249 287 16,000  Level Cleveland Center
Fri 10:22:22 PM 40.5486 -80.7033 232° Southwest 244 281 16,000  Level Cleveland Center
Fri 10:23:22 PM 40.5047 -80.7742 231° Southwest 250 288 16,000  Level Cleveland Center
Fri 10:24:22 PM 40.4589 -80.8450 230° Southwest 255 293 16,000  Level Cleveland Center
Fri 10:25:22 PM 40.4147 -80.9186 232° Southwest 255 293 16,000  Level Cleveland Center
Fri 10:26:22 PM 40.3750 -80.9947 236° Southwest 255 293 16,000 -50 Level Cleveland Center
Fri 10:27:22 PM 40.3372 -81.0733 238° Southwest 260 299 15,900 -61 Descending Cleveland Center
Fri 10:28:01 PM 40.3142 -81.1269 241° Southwest 256 295 15,900  Level Indianapolis Center
Fri 10:29:02 PM 40.2794 -81.2111 242° Southwest 260 299 15,900 49 Level Indianapolis Center
Fri 10:30:03 PM 40.2481 -81.2967 244° Southwest 259 298 16,000 49 Climbing Indianapolis Center
Fri 10:31:04 PM 40.2206 -81.3836 248° West 257 296 16,000  Level Indianapolis Center
Fri 10:32:05 PM 40.1942 -81.4711 248° West 256 295 16,000  Level Indianapolis Center
Fri 10:33:06 PM 40.1675 -81.5597 249° West 260 299 16,000  Level Indianapolis Center
Fri 10:34:07 PM 40.1425 -81.6428 249° West 256 295 16,000  Level Indianapolis Center
Fri 10:35:08 PM 40.1144 -81.7358 249° West 259 298 16,000  Level Indianapolis Center
Fri 10:36:09 PM 40.0897 -81.8197 249° West 260 299 16,000  Level Indianapolis Center
Fri 10:37:10 PM 40.0642 -81.9083 249° West 260 299 16,000  Level Indianapolis Center
Fri 10:38:11 PM 40.0378 -81.9961 249° West 258 297 16,000  Level Indianapolis Center
Fri 10:39:13 PM 40.0072 -82.1000 249° West 261 300 16,000  Level Indianapolis Center
Fri 10:40:14 PM 39.9817 -82.1892 250° West 261 300 16,000  Level Indianapolis Center
Fri 10:41:15 PM 39.9561 -82.2786 250° West 262 302 16,000  Level Indianapolis Center
Fri 10:42:16 PM 39.9289 -82.3675 248° West 262 302 16,000  Level Indianapolis Center
Fri 10:43:17 PM 39.9039 -82.4556 250° West 260 299 16,000  Level Indianapolis Center
Fri 10:44:18 PM 39.8789 -82.5453 250° West 261 300 16,000  Level Indianapolis Center
Fri 10:45:19 PM 39.8503 -82.6317 247° West 259 298 16,000  Level Indianapolis Center
Fri 10:46:20 PM 39.8192 -82.7186 245° Southwest 261 300 16,000  Level Indianapolis Center
Fri 10:47:21 PM 39.7867 -82.8014 243° Southwest 257 296 16,000  Level Indianapolis Center
Fri 10:48:22 PM 39.7511 -82.8864 241° Southwest 262 302 16,000  Level Indianapolis Center
Fri 10:49:23 PM 39.7158 -82.9683 241° Southwest 258 297 16,000  Level Indianapolis Center
Fri 10:50:25 PM 39.6781 -83.0503 239° Southwest 261 300 16,000  Level Indianapolis Center
Fri 10:51:26 PM 39.6397 -83.1333 239° Southwest 264 304 16,000  Level Indianapolis Center
Fri 10:52:27 PM 39.6014 -83.2167 239° Southwest 265 305 16,000  Level Indianapolis Center
Fri 10:53:28 PM 39.5633 -83.2975 239° Southwest 261 300 16,000  Level Indianapolis Center
Fri 10:54:29 PM 39.5258 -83.3808 240° Southwest 263 303 16,000  Level Indianapolis Center
Fri 10:55:30 PM 39.4914 -83.4656 242° Southwest 264 304 16,000 -344 Level Indianapolis Center
Fri 10:56:31 PM 39.4600 -83.5539 245° Southwest 265 305 15,300 -689 Descending Indianapolis Center
Fri 10:57:32 PM 39.4272 -83.6489 246° West 279 321 14,600 -885 Descending Indianapolis Center
Fri 10:58:33 PM 39.3917 -83.7408 243° Southwest 284 327 13,500 -1,082 Descending Indianapolis Center
Fri 10:59:34 PM 39.3611 -83.8381 248° West 288 331 12,400 -1,082 Descending Indianapolis Center
Fri 11:00:35 PM 39.3283 -83.9294 245° Southwest 281 323 11,300 -885 Descending Indianapolis Center
Fri 11:01:36 PM 39.2931 -84.0108 241° Southwest 262 302 10,600 -1,033 Descending Indianapolis Center
Fri 11:02:37 PM 39.2569 -84.0894 239° Southwest 253 291 9,200 -1,279 Descending Indianapolis Center
Fri 11:03:38 PM 39.2239 -84.1661 241° Southwest 247 284 8,000 -1,261 Descending Indianapolis Center
Fri 11:05:33 PM 39.1667 -84.3333 246° West 243 280 5,500 -994 Descending Cincinnati TRACON
Fri 11:06:33 PM 39.1333 -84.4000 237° Southwest 232 267 5,100 -750 Descending Cincinnati TRACON
Fri 11:07:33 PM 39.1000 -84.4667 237° Southwest 224 258 4,000 -700 Descending Cincinnati TRACON
Fri 11:08:33 PM 39.0500 -84.5167 218° Southwest 200 230 3,700 -500 Descending Cincinnati TRACON
Fri 11:09:33 PM 39.0000 -84.5500 207° Southwest 196 226 3,000 -700 Descending Cincinnati TRACON
Fri 11:10:33 PM 38.9833 -84.6000 247° West 136 157 2,300 -600 Descending Cincinnati TRACON
Fri 11:11:33 PM 38.9833 -84.6500 270° West 131 151 1,800 -550 Descending Cincinnati TRACON
Fri 11:12:33 PM 39.0167 -84.6667 339° North 143 165 1,200 -600 Descending Cincinnati TRACON
Fri 11:14:00 PM 39.0333 -84.6667 247° West  Level FlightAware Approximate

Login

Don't have an account? Register now (free) for customized features, flight alerts, and more!